Time;durP1;ratioP1;P1;durP2;ratioP2;P2;SDS_P1;SDS_P2;PMS_P1;PMS_P2;Temp;Humidity;BMP_temperature;BMP_pressure;BME280_temperature;BME280_humidity;BME280_pressure;Samples;Min_cycle;Max_cycle;Signal;HPM_P1;HPM_P2
2023/07/02 00:01:49;;;;;;;25.63;15.13;;;;;15.80;100317.00;;;;10526552;28;20209;-75
2023/07/02 00:06:51;;;;;;;33.35;15.98;;;;;15.80;100318.00;;;;10509285;28;20234;-76
2023/07/02 00:11:52;;;;;;;30.92;15.95;;;;;15.80;100331.00;;;;10543474;28;20189;-76
2023/07/02 00:16:53;;;;;;;29.75;15.73;;;;;15.80;100335.00;;;;10543058;28;20204;-75
2023/07/02 00:21:55;;;;;;;30.27;16.23;;;;;15.80;100324.00;;;;10542405;28;20209;-75
2023/07/02 00:26:56;;;;;;;26.52;16.00;;;;;15.80;100324.00;;;;10543246;28;20657;-76
2023/07/02 00:31:58;;;;;;;35.78;17.27;;;;;15.80;100334.00;;;;10542075;28;20646;-76
2023/07/02 00:36:59;;;;;;;35.05;17.58;;;;;15.70;100325.00;;;;10542212;28;20226;-76
2023/07/02 00:42:04;;;;;;;35.90;18.38;;;;;15.70;100336.00;;;;10525512;28;20248;-75
2023/07/02 00:47:06;;;;;;;35.35;17.73;;;;;15.80;100335.00;;;;10525115;28;20207;-76
2023/07/02 00:52:08;;;;;;;31.25;17.25;;;;;15.80;100333.00;;;;10541101;28;20233;-76
2023/07/02 00:57:09;;;;;;;34.10;17.00;;;;;15.80;100333.00;;;;10541640;28;20196;-76
2023/07/02 01:02:10;;;;;;;35.10;18.10;;;;;15.80;100336.00;;;;10540360;28;20243;-76
2023/07/02 01:07:11;;;;;;;32.92;18.85;;;;;15.80;100335.00;;;;10540921;28;20197;-75
2023/07/02 01:12:15;;;;;;;34.70;18.65;;;;;15.80;100344.00;;;;10540154;28;20246;-75
2023/07/02 01:17:19;;;;;;;34.10;18.35;;;;;15.80;100350.00;;;;10541266;28;20196;-75
2023/07/02 01:22:26;;;;;;;41.47;19.83;;;;;15.80;100351.00;;;;10541525;28;20223;-75
2023/07/02 01:27:29;;;;;;;35.97;19.95;;;;;15.80;100344.00;;;;10540798;28;20193;-75
2023/07/02 01:32:30;;;;;;;34.88;19.88;;;;;15.80;100353.00;;;;10539500;28;20193;-76
2023/07/02 01:37:37;;;;;;;37.20;20.27;;;;;15.80;100355.00;;;;10540243;28;20242;-75
2023/07/02 01:42:39;;;;;;;38.40;20.38;;;;;15.80;100358.00;;;;10541259;28;20682;-76
2023/07/02 01:47:40;;;;;;;35.33;19.45;;;;;15.80;100358.00;;;;10540995;28;20592;-75
2023/07/02 01:52:44;;;;;;;40.35;21.00;;;;;15.80;100360.00;;;;10540218;28;20247;-75
2023/07/02 01:57:45;;;;;;;40.85;21.10;;;;;15.80;100358.00;;;;10539878;28;20199;-76
2023/07/02 02:02:46;;;;;;;44.72;21.70;;;;;15.80;100365.00;;;;10539517;28;20292;-76
2023/07/02 02:07:48;;;;;;;40.20;21.45;;;;;15.80;100364.00;;;;10541653;28;20196;-76
2023/07/02 02:12:49;;;;;;;37.17;20.85;;;;;15.80;100369.00;;;;10539047;28;20201;-76
2023/07/02 02:17:50;;;;;;;38.33;22.08;;;;;15.80;100373.00;;;;10533686;28;20208;-76
2023/07/02 02:22:52;;;;;;;40.53;21.20;;;;;15.80;100381.00;;;;10496213;28;20217;-75
2023/07/02 02:27:53;;;;;;;46.17;22.00;;;;;15.80;100376.00;;;;10481765;28;20197;-76
2023/07/02 02:32:55;;;;;;;40.03;20.15;;;;;15.70;100375.00;;;;10523809;28;20673;-82
2023/07/02 02:37:57;;;;;;;43.58;22.63;;;;;15.70;100389.00;;;;10539745;28;20273;-84
2023/07/02 02:42:58;;;;;;;41.35;21.98;;;;;15.60;100381.00;;;;10539885;28;20338;-74
2023/07/02 02:48:00;;;;;;;46.28;22.98;;;;;15.60;100384.00;;;;10546762;28;20197;-75
2023/07/02 02:53:01;;;;;;;40.85;22.33;;;;;15.50;100391.00;;;;10528770;28;20200;-74
2023/07/02 02:58:03;;;;;;;45.45;22.73;;;;;15.50;100402.00;;;;10541251;28;20268;-82
2023/07/02 03:03:04;;;;;;;47.10;23.05;;;;;15.40;100399.00;;;;10527699;28;20573;-74
2023/07/02 03:08:07;;;;;;;46.30;22.80;;;;;15.30;100401.00;;;;10546159;28;20287;-75
2023/07/02 03:13:09;;;;;;;44.58;21.38;;;;;15.20;100413.00;;;;10528435;28;20295;-83
2023/07/02 03:18:10;;;;;;;51.92;23.95;;;;;15.20;100414.00;;;;10511942;28;20205;-83
2023/07/02 03:23:11;;;;;;;46.95;23.60;;;;;15.20;100413.00;;;;10527133;28;20251;-74
2023/07/02 03:28:12;;;;;;;40.38;22.20;;;;;15.20;100418.00;;;;10528335;28;20279;-85
2023/07/02 03:33:14;;;;;;;52.28;22.95;;;;;15.10;100422.00;;;;10527625;28;20192;-75
2023/07/02 03:38:15;;;;;;;45.92;23.73;;;;;15.00;100428.00;;;;10545154;28;20193;-83
2023/07/02 03:43:17;;;;;;;45.88;23.13;;;;;15.00;100426.00;;;;10527246;28;20216;-76
2023/07/02 03:48:18;;;;;;;42.47;23.70;;;;;14.90;100430.00;;;;10544935;28;20208;-74
2023/07/02 03:53:19;;;;;;;44.08;23.63;;;;;14.90;100435.00;;;;10526546;28;20275;-74
2023/07/02 03:58:21;;;;;;;49.17;24.33;;;;;14.90;100436.00;;;;10509448;28;20204;-75
2023/07/02 04:03:22;;;;;;;48.97;23.60;;;;;15.00;100440.00;;;;10546749;28;20232;-83
2023/07/02 04:08:28;;;;;;;52.70;25.20;;;;;15.00;100450.00;;;;10546882;28;20197;-84
2023/07/02 04:13:29;;;;;;;55.47;26.15;;;;;15.20;100448.00;;;;10511154;28;20275;-74
2023/07/02 04:18:30;;;;;;;56.80;26.50;;;;;15.20;100451.00;;;;10526100;28;20291;-76
2023/07/02 04:23:31;;;;;;;54.10;25.08;;;;;15.30;100455.00;;;;10543630;28;20691;-76
2023/07/02 04:28:33;;;;;;;50.47;26.05;;;;;15.30;100457.00;;;;10566145;28;20203;-74
2023/07/02 04:33:35;;;;;;;56.55;26.45;;;;;15.40;100463.00;;;;10550448;28;20649;-76
2023/07/02 04:38:39;;;;;;;55.08;28.23;;;;;15.50;100474.00;;;;10585343;28;20188;-74
2023/07/02 04:43:40;;;;;;;59.78;28.08;;;;;15.80;100477.00;;;;10585265;28;20219;-75
2023/07/02 04:48:41;;;;;;;56.28;27.58;;;;;15.90;100477.00;;;;10566520;28;20253;-83
2023/07/02 04:53:43;;;;;;;50.75;26.83;;;;;16.00;100480.00;;;;10585104;28;20210;-83
2023/07/02 04:58:44;;;;;;;64.88;30.17;;;;;16.10;100482.00;;;;10584731;28;20553;-74
2023/07/02 05:03:45;;;;;;;56.83;27.58;;;;;16.20;100484.00;;;;10584043;28;20692;-75
2023/07/02 05:08:47;;;;;;;55.10;27.88;;;;;16.30;100483.00;;;;10565707;28;20572;-74
2023/07/02 05:13:48;;;;;;;54.50;28.00;;;;;16.50;100489.00;;;;10565617;28;20215;-74
2023/07/02 05:18:49;;;;;;;62.08;29.00;;;;;16.70;100493.00;;;;10584683;28;20553;-83
2023/07/02 05:23:51;;;;;;;57.35;28.00;;;;;16.90;100498.00;;;;10584403;28;20734;-76
2023/07/02 05:28:52;;;;;;;62.03;28.25;;;;;17.10;100499.00;;;;10582277;28;20275;-75
2023/07/02 05:33:54;;;;;;;49.28;26.83;;;;;17.20;100504.00;;;;10583297;28;20667;-76
2023/07/02 05:38:55;;;;;;;56.78;28.35;;;;;17.50;100505.00;;;;10564799;28;20576;-76
2023/07/02 05:43:58;;;;;;;55.38;27.85;;;;;18.00;100507.00;;;;10565106;28;20273;-74
2023/07/02 05:48:59;;;;;;;56.78;27.23;;;;;18.20;100512.00;;;;10582625;28;20196;-76
2023/07/02 05:54:01;;;;;;;53.85;26.90;;;;;18.20;100523.00;;;;10582604;28;20654;-76
2023/07/02 05:59:02;;;;;;;52.25;26.55;;;;;18.70;100523.00;;;;10584013;28;20550;-83
2023/07/02 06:04:04;;;;;;;53.03;26.88;;;;;19.20;100518.00;;;;10582733;28;20641;-75
2023/07/02 06:09:06;;;;;;;47.85;24.48;;;;;19.70;100518.00;;;;10582690;28;20213;-75
2023/07/02 06:14:07;;;;;;;50.50;25.73;;;;;20.00;100530.00;;;;10564334;28;20283;-84
2023/07/02 06:19:08;;;;;;;41.85;24.10;;;;;19.80;100526.00;;;;10532366;28;20205;-75
2023/07/02 06:24:09;;;;;;;48.25;25.55;;;;;20.60;100540.00;;;;10506646;28;20221;-75
2023/07/02 06:29:11;;;;;;;42.53;23.98;;;;;20.50;100539.00;;;;10505975;28;20234;-75
2023/07/02 06:34:12;;;;;;;44.50;23.90;;;;;20.10;100548.00;;;;10505931;28;20177;-76
2023/07/02 06:39:13;;;;;;;46.33;22.85;;;;;19.80;100554.00;;;;10545866;28;20197;-76
2023/07/02 06:44:15;;;;;;;43.58;22.83;;;;;19.90;100561.00;;;;10529669;28;20240;-84
2023/07/02 06:49:16;;;;;;;40.97;20.15;;;;;20.30;100560.00;;;;10546847;28;20219;-76
2023/07/02 06:54:18;;;;;;;34.58;19.83;;;;;20.50;100566.00;;;;10546214;28;20284;-74
2023/07/02 06:59:22;;;;;;;37.17;19.08;;;;;20.60;100570.00;;;;10543952;28;20247;-75
2023/07/02 07:04:24;;;;;;;32.25;17.98;;;;;20.70;100593.00;;;;10525978;28;20212;-74
2023/07/02 07:09:25;;;;;;;38.90;18.85;;;;;20.70;100589.00;;;;10508659;28;20599;-79
2023/07/02 07:14:26;;;;;;;31.48;15.68;;;;;20.70;100589.00;;;;10533457;28;20233;-79
2023/07/02 07:19:28;;;;;;;27.95;13.05;;;;;20.80;100593.00;;;;10510705;28;20212;-77
2023/07/02 07:24:29;;;;;;;20.48;10.90;;;;;20.70;100596.00;;;;10537724;28;20200;-78
2023/07/02 07:29:30;;;;;;;21.40;11.85;;;;;20.70;100591.00;;;;10527876;28;20206;-77
2023/07/02 07:34:32;;;;;;;24.50;11.15;;;;;20.60;100604.00;;;;10507606;28;20201;-75
2023/07/02 07:39:33;;;;;;;20.35;11.02;;;;;21.10;100600.00;;;;10529684;28;20246;-75
2023/07/02 07:44:34;;;;;;;21.13;9.65;;;;;21.10;100610.00;;;;10528579;28;20203;-75
2023/07/02 07:49:36;;;;;;;20.67;9.38;;;;;20.90;100609.00;;;;10541254;28;20231;-85
2023/07/02 07:54:37;;;;;;;14.63;7.60;;;;;21.10;100595.00;;;;10537149;28;20223;-77
2023/07/02 07:59:39;;;;;;;15.38;7.53;;;;;21.50;100602.00;;;;10520342;28;20206;-74
2023/07/02 08:04:40;;;;;;;16.83;8.55;;;;;21.50;100609.00;;;;10530818;28;20673;-75
2023/07/02 08:09:41;;;;;;;14.80;7.13;;;;;21.60;100598.00;;;;10529925;28;20197;-84
2023/07/02 08:14:43;;;;;;;13.70;6.82;;;;;21.80;100599.00;;;;10515630;28;20224;-75
2023/07/02 08:19:44;;;;;;;16.80;7.18;;;;;22.10;100591.00;;;;10527499;28;20196;-76
2023/07/02 08:24:49;;;;;;;16.95;7.70;;;;;22.80;100604.00;;;;10531274;28;20203;-85
2023/07/02 08:29:50;;;;;;;14.45;7.47;;;;;23.00;100608.00;;;;10491169;28;20562;-83
2023/07/02 08:34:52;;;;;;;16.27;8.98;;;;;22.80;100613.00;;;;10532757;28;20561;-75
2023/07/02 08:39:53;;;;;;;14.90;8.45;;;;;22.70;100605.00;;;;10511871;28;20262;-83
2023/07/02 08:44:57;;;;;;;16.10;9.00;;;;;23.80;100614.00;;;;10527268;28;20201;-84
2023/07/02 08:49:58;;;;;;;15.10;8.40;;;;;24.30;100604.00;;;;10521262;28;20335;-75
2023/07/02 08:55:00;;;;;;;15.75;9.23;;;;;26.20;100615.00;;;;10499349;28;20205;-75
2023/07/02 09:00:13;;;;;;;20.38;10.43;;;;;24.90;100620.00;;;;10551719;28;20441;-84
2023/07/02 09:05:14;;;;;;;19.95;10.35;;;;;24.80;100620.00;;;;10509254;28;20232;-75
2023/07/02 09:10:29;;;;;;;18.52;9.95;;;;;24.30;100608.00;;;;10535448;28;20566;-75
2023/07/02 09:15:38;;;;;;;22.38;11.07;;;;;22.70;100620.00;;;;10491259;28;20217;-76
2023/07/02 09:20:40;;;;;;;16.02;9.60;;;;;22.80;100625.00;;;;10512339;28;20256;-74
2023/07/02 09:25:41;;;;;;;18.08;10.80;;;;;21.70;100624.00;;;;10502216;28;20631;-74
2023/07/02 09:30:57;;;;;;;22.75;10.57;;;;;21.40;100624.00;;;;10524351;28;20200;-86
2023/07/02 09:35:58;;;;;;;20.98;10.73;;;;;22.40;100627.00;;;;10525649;28;20193;-74
2023/07/02 09:41:00;;;;;;;18.35;11.07;;;;;22.90;100621.00;;;;10532090;28;20221;-77
2023/07/02 09:46:01;;;;;;;21.98;11.77;;;;;25.10;100607.00;;;;10518610;28;20189;-73
2023/07/02 09:51:04;;;;;;;22.88;11.68;;;;;26.00;100626.00;;;;10511666;28;20672;-77
2023/07/02 09:56:08;;;;;;;21.33;11.85;;;;;25.30;100624.00;;;;10503786;28;20231;-77
2023/07/02 10:01:09;;;;;;;22.63;11.05;;;;;24.00;100624.00;;;;10520428;28;20221;-81
2023/07/02 10:06:11;;;;;;;19.85;10.75;;;;;22.90;100629.00;;;;10509438;28;20236;-90
2023/07/02 10:11:13;;;;;;;23.20;11.15;;;;;22.40;100635.00;;;;10547730;28;20189;-75
2023/07/02 10:16:14;;;;;;;21.90;11.50;;;;;22.90;100642.00;;;;10516507;28;20282;-76
2023/07/02 10:21:17;;;;;;;21.27;11.77;;;;;23.70;100620.00;;;;10530689;28;20582;-77
2023/07/02 10:26:19;;;;;;;24.00;11.63;;;;;26.70;100621.00;;;;10523716;28;20199;-75
2023/07/02 10:31:21;;;;;;;24.77;11.70;;;;;26.90;100631.00;;;;10521912;28;20559;-75
2023/07/02 10:36:25;;;;;;;20.40;10.85;;;;;25.00;100632.00;;;;10510486;28;20205;-75
2023/07/02 10:41:28;;;;;;;18.65;11.43;;;;;24.50;100632.00;;;;10525769;28;20221;-74
2023/07/02 10:46:29;;;;;;;25.05;11.63;;;;;24.80;100636.00;;;;10519187;28;20201;-87
2023/07/02 10:51:31;;;;;;;23.52;11.13;;;;;24.10;100631.00;;;;10524997;28;20674;-74
2023/07/02 10:56:32;;;;;;;18.98;11.05;;;;;24.40;100635.00;;;;10523286;28;20686;-86
2023/07/02 11:01:34;;;;;;;20.23;10.52;;;;;24.30;100636.00;;;;10529093;28;20212;-74
2023/07/02 11:06:35;;;;;;;17.33;11.38;;;;;24.00;100640.00;;;;10522773;28;20570;-74
2023/07/02 11:11:37;;;;;;;19.92;11.23;;;;;26.50;100625.00;;;;10536795;28;20681;-77
2023/07/02 11:16:38;;;;;;;19.15;10.38;;;;;26.90;100629.00;;;;10520647;28;20249;-74
2023/07/02 11:21:51;;;;;;;19.90;10.50;;;;;26.50;100635.00;;;;10524452;28;20212;-76
2023/07/02 11:26:52;;;;;;;22.80;10.30;;;;;26.10;100635.00;;;;10542114;28;20216;-79
2023/07/02 11:31:53;;;;;;;22.20;10.45;;;;;26.70;100636.00;;;;10516546;28;20680;-74
2023/07/02 11:36:55;;;;;;;17.70;10.02;;;;;26.00;100623.00;;;;10537415;28;20188;-76
2023/07/02 11:41:56;;;;;;;20.67;10.68;;;;;24.80;100631.00;;;;10513743;28;20208;-76
2023/07/02 11:46:58;;;;;;;17.08;10.82;;;;;26.10;100622.00;;;;10528624;28;20561;-74
2023/07/02 11:51:59;;;;;;;17.98;11.30;;;;;27.40;100615.00;;;;10520062;28;20197;-73
2023/07/02 11:57:00;;;;;;;18.73;10.10;;;;;27.70;100626.00;;;;10519992;28;20200;-87
2023/07/02 12:02:02;;;;;;;19.83;11.05;;;;;25.90;100617.00;;;;10509313;28;20213;-75
2023/07/02 12:07:03;;;;;;;21.77;11.45;;;;;24.40;100635.00;;;;10529363;28;20250;-76
2023/07/02 12:12:05;;;;;;;20.60;10.68;;;;;24.60;100631.00;;;;10534721;28;20220;-76
2023/07/02 12:17:07;;;;;;;24.50;11.75;;;;;25.30;100619.00;;;;10543264;28;20562;-80
2023/07/02 12:22:08;;;;;;;17.65;10.02;;;;;27.20;100624.00;;;;10530089;28;20220;-74
2023/07/02 12:27:09;;;;;;;19.50;10.15;;;;;27.70;100618.00;;;;10524930;28;20209;-83
2023/07/02 12:32:11;;;;;;;19.02;9.90;;;;;26.20;100625.00;;;;10505212;28;20197;-82
2023/07/02 12:37:17;;;;;;;13.65;8.48;;;;;25.70;100624.00;;;;10519553;28;20623;-80
2023/07/02 12:42:18;;;;;;;17.85;9.63;;;;;26.20;100626.00;;;;10508693;28;20725;-76
2023/07/02 12:47:20;;;;;;;16.70;9.45;;;;;26.00;100625.00;;;;10513885;28;20201;-75
2023/07/02 12:52:21;;;;;;;15.18;8.25;;;;;26.10;100618.00;;;;10486800;28;20209;-77
2023/07/02 12:57:23;;;;;;;14.13;8.48;;;;;25.20;100625.00;;;;10529545;28;20196;-74
2023/07/02 13:02:24;;;;;;;15.23;8.50;;;;;25.80;100632.00;;;;10546388;28;20299;-74
2023/07/02 13:07:25;;;;;;;16.55;9.32;;;;;26.70;100616.00;;;;10538664;28;20274;-73
2023/07/02 13:12:27;;;;;;;18.83;10.23;;;;;27.80;100616.00;;;;10526475;28;20228;-73
2023/07/02 13:17:28;;;;;;;17.80;9.80;;;;;28.80;100609.00;;;;10515972;28;20283;-74
2023/07/02 13:22:29;;;;;;;13.40;8.35;;;;;28.30;100614.00;;;;10505068;28;20575;-74
2023/07/02 13:27:31;;;;;;;15.73;8.32;;;;;28.90;100610.00;;;;10520875;28;20542;-74
2023/07/02 13:32:32;;;;;;;17.17;9.10;;;;;29.00;100616.00;;;;10518153;28;20212;-88
2023/07/02 13:37:33;;;;;;;16.30;8.77;;;;;29.80;100604.00;;;;10524296;28;20207;-84
2023/07/02 13:42:35;;;;;;;14.77;8.45;;;;;28.90;100619.00;;;;10518550;28;20217;-75
2023/07/02 13:47:37;;;;;;;17.25;8.52;;;;;27.90;100612.00;;;;10493118;28;20247;-75
2023/07/02 13:52:39;;;;;;;15.60;8.43;;;;;28.40;100615.00;;;;10526742;28;20266;-74
2023/07/02 13:57:40;;;;;;;15.65;8.02;;;;;27.70;100614.00;;;;10520575;28;20509;-80
2023/07/02 14:02:41;;;;;;;18.80;8.38;;;;;27.30;100603.00;;;;10527503;28;20220;-82
2023/07/02 14:07:43;;;;;;;12.45;7.03;;;;;28.70;100602.00;;;;10509128;28;20636;-85
2023/07/02 14:12:44;;;;;;;13.77;7.53;;;;;28.70;100603.00;;;;10521108;28;20196;-75
2023/07/02 14:17:45;;;;;;;16.77;8.77;;;;;27.20;100606.00;;;;10529545;28;20192;-75
2023/07/02 14:22:47;;;;;;;15.73;8.27;;;;;26.50;100592.00;;;;10539118;28;20673;-75
2023/07/02 14:27:50;;;;;;;17.52;8.02;;;;;26.00;100597.00;;;;10539906;28;20189;-75
2023/07/02 14:32:51;;;;;;;15.35;8.63;;;;;26.50;100588.00;;;;10538638;28;20193;-74
2023/07/02 14:37:53;;;;;;;14.68;7.60;;;;;27.00;100573.00;;;;10539601;28;20201;-75
2023/07/02 14:42:54;;;;;;;14.18;8.25;;;;;26.60;100568.00;;;;10547646;28;20216;-87
2023/07/02 14:47:59;;;;;;;12.93;7.68;;;;;26.20;100570.00;;;;10520917;28;20194;-75
2023/07/02 14:53:00;;;;;;;16.10;8.15;;;;;25.60;100593.00;;;;10534308;28;20216;-75
2023/07/02 14:58:02;;;;;;;15.43;8.50;;;;;25.30;100588.00;;;;10527683;28;20342;-75
2023/07/02 15:03:03;;;;;;;17.45;7.75;;;;;25.80;100580.00;;;;10549164;28;20258;-87
2023/07/02 15:08:07;;;;;;;12.90;7.22;;;;;25.60;100576.00;;;;10511838;28;20310;-84
2023/07/02 15:13:09;;;;;;;17.52;6.72;;;;;26.10;100553.00;;;;10538616;28;20610;-85
2023/07/02 15:18:10;;;;;;;15.98;6.68;;;;;26.00;100575.00;;;;10522219;28;20213;-75
2023/07/02 15:23:12;;;;;;;15.63;7.68;;;;;25.80;100567.00;;;;10532710;28;20296;-76
2023/07/02 15:28:15;;;;;;;15.25;7.68;;;;;26.00;100572.00;;;;10499592;28;20292;-75
2023/07/02 15:33:17;;;;;;;14.35;7.43;;;;;26.50;100565.00;;;;10524144;28;20201;-75
2023/07/02 15:38:18;;;;;;;11.43;7.10;;;;;26.00;100588.00;;;;10526628;28;20197;-75
2023/07/02 15:43:20;;;;;;;11.38;6.53;;;;;25.40;100576.00;;;;10552634;28;20344;-87
2023/07/02 15:48:21;;;;;;;17.98;7.35;;;;;25.20;100575.00;;;;10529467;28;20568;-86
2023/07/02 15:53:24;;;;;;;12.90;7.05;;;;;25.50;100569.00;;;;10525051;28;20292;-84
2023/07/02 15:58:28;;;;;;;13.32;6.30;;;;;25.10;100566.00;;;;10532503;28;20258;-74
2023/07/02 16:03:30;;;;;;;17.27;7.30;;;;;25.00;100570.00;;;;10544254;28;20216;-75
2023/07/02 16:08:31;;;;;;;20.00;7.85;;;;;25.10;100571.00;;;;10514047;28;20200;-76
2023/07/02 16:13:33;;;;;;;21.92;9.35;;;;;25.60;100561.00;;;;10507853;28;20193;-87
2023/07/02 16:18:34;;;;;;;16.27;7.97;;;;;25.10;100567.00;;;;10526810;28;20208;-82
2023/07/02 16:23:36;;;;;;;15.73;8.02;;;;;24.80;100575.00;;;;10523552;28;20240;-76
2023/07/02 16:28:38;;;;;;;16.05;7.30;;;;;24.30;100586.00;;;;10526095;28;20578;-74
2023/07/02 16:33:39;;;;;;;19.42;7.40;;;;;24.00;100573.00;;;;10540462;28;20188;-74
2023/07/02 16:38:41;;;;;;;18.08;6.93;;;;;24.40;100573.00;;;;10521657;28;20210;-74
2023/07/02 16:43:42;;;;;;;18.20;6.60;;;;;24.00;100583.00;;;;10515511;28;20225;-74
2023/07/02 16:48:43;;;;;;;16.27;6.57;;;;;24.10;100582.00;;;;10504806;28;20194;-86
2023/07/02 16:53:44;;;;;;;14.77;6.03;;;;;24.30;100579.00;;;;10512895;28;20539;-75
2023/07/02 16:58:46;;;;;;;12.77;5.63;;;;;23.90;100576.00;;;;10501651;28;20205;-76
2023/07/02 17:03:47;;;;;;;10.63;4.80;;;;;23.60;100578.00;;;;10500050;28;20616;-75
2023/07/02 17:09:25;;;;;;;13.98;5.95;;;;;23.30;100576.00;;;;10526778;28;20212;-75
2023/07/02 17:14:30;;;;;;;12.55;4.82;;;;;23.50;100589.00;;;;10524828;28;20675;-81
2023/07/02 17:19:36;;;;;;;15.50;5.50;;;;;23.30;100576.00;;;;10538466;28;20654;-75
2023/07/02 17:24:40;;;;;;;14.15;5.47;;;;;23.20;100586.00;;;;10534725;28;20295;-76
2023/07/02 17:29:43;;;;;;;11.23;4.93;;;;;23.30;100579.00;;;;10511268;28;20208;-82
2023/07/02 17:34:44;;;;;;;16.65;5.22;;;;;23.10;100574.00;;;;10535760;28;20219;-75
2023/07/02 17:39:47;;;;;;;14.52;5.50;;;;;22.70;100592.00;;;;10511061;28;20239;-75
2023/07/02 17:44:49;;;;;;;7.30;3.58;;;;;22.80;100581.00;;;;10498530;28;20233;-75
2023/07/02 17:49:50;;;;;;;13.88;5.05;;;;;22.50;100592.00;;;;10517857;28;20243;-81
2023/07/02 17:54:54;;;;;;;11.02;4.13;;;;;22.30;100586.00;;;;10491157;28;20269;-79
2023/07/02 17:59:56;;;;;;;10.38;4.57;;;;;22.40;100583.00;;;;10539829;28;20192;-75
2023/07/02 18:04:57;;;;;;;12.00;3.45;;;;;22.40;100571.00;;;;10520115;28;20299;-84
2023/07/02 18:09:59;;;;;;;10.23;3.78;;;;;22.30;100580.00;;;;10514647;28;20281;-82
2023/07/02 18:15:00;;;;;;;13.73;3.90;;;;;21.80;100579.00;;;;10486995;28;20208;-77
2023/07/02 18:20:03;;;;;;;11.48;4.00;;;;;21.50;100594.00;;;;10478121;28;20211;-76
2023/07/02 18:25:05;;;;;;;11.73;4.20;;;;;21.20;100591.00;;;;10516503;28;20211;-76
2023/07/02 18:30:07;;;;;;;16.83;3.97;;;;;21.00;100595.00;;;;10537802;28;20196;-76
2023/07/02 18:35:08;;;;;;;16.02;4.13;;;;;20.60;100604.00;;;;10492610;28;20202;-75
2023/07/02 18:40:10;;;;;;;12.57;3.20;;;;;20.30;100615.00;;;;10505887;28;20204;-74
2023/07/02 18:45:11;;;;;;;13.30;3.60;;;;;20.00;100625.00;;;;10534639;28;20208;-75
2023/07/02 18:50:13;;;;;;;13.80;2.85;;;;;19.70;100618.00;;;;10529197;28;20216;-78
2023/07/02 18:55:15;;;;;;;12.05;2.88;;;;;19.40;100616.00;;;;10516489;28;20197;-73
2023/07/02 19:00:16;;;;;;;10.85;3.13;;;;;19.20;100629.00;;;;10506085;28;20240;-75
2023/07/02 19:05:18;;;;;;;12.63;3.45;;;;;19.30;100611.00;;;;10509008;28;20570;-77
2023/07/02 19:10:19;;;;;;;15.70;3.63;;;;;19.20;100619.00;;;;10526308;28;20204;-77
2023/07/02 19:15:21;;;;;;;11.60;3.45;;;;;18.90;100615.00;;;;10526233;28;20631;-83
2023/07/02 19:20:22;;;;;;;13.75;3.35;;;;;18.80;100612.00;;;;10524895;28;20200;-84
2023/07/02 19:25:24;;;;;;;11.82;3.45;;;;;18.60;100611.00;;;;10530085;28;20200;-76
2023/07/02 19:30:25;;;;;;;13.10;3.97;;;;;18.40;100620.00;;;;10526973;28;20198;-76
2023/07/02 19:35:29;;;;;;;14.95;4.00;;;;;18.30;100616.00;;;;10519494;28;20604;-76
2023/07/02 19:40:31;;;;;;;11.82;3.38;;;;;18.20;100625.00;;;;10518168;28;20221;-78
2023/07/02 19:45:35;;;;;;;13.52;3.90;;;;;18.10;100624.00;;;;10515344;28;20225;-76
2023/07/02 19:50:37;;;;;;;12.02;3.35;;;;;17.90;100631.00;;;;10497473;28;20570;-74
2023/07/02 19:55:38;;;;;;;11.77;3.63;;;;;17.70;100629.00;;;;10522725;28;20201;-75
2023/07/02 20:00:41;;;;;;;13.18;4.10;;;;;17.50;100637.00;;;;10505491;28;20626;-74
2023/07/02 20:05:43;;;;;;;10.57;2.95;;;;;17.30;100642.00;;;;10496735;28;20629;-74
2023/07/02 20:10:45;;;;;;;13.73;3.92;;;;;17.20;100649.00;;;;10531015;28;20197;-77
2023/07/02 20:15:47;;;;;;;13.18;4.18;;;;;17.10;100651.00;;;;10519271;28;20673;-75
2023/07/02 20:20:53;;;;;;;11.63;3.50;;;;;17.00;100652.00;;;;10513892;28;20227;-75
2023/07/02 20:25:54;;;;;;;12.63;3.45;;;;;16.90;100655.00;;;;10496779;28;20243;-75
2023/07/02 20:30:57;;;;;;;10.45;3.38;;;;;16.90;100646.00;;;;10495026;28;20201;-80
2023/07/02 20:35:58;;;;;;;13.82;4.38;;;;;16.90;100647.00;;;;10535556;28;20216;-80
2023/07/02 20:41:01;;;;;;;11.20;4.00;;;;;16.80;100642.00;;;;10524382;28;20213;-73
2023/07/02 20:46:04;;;;;;;17.02;3.72;;;;;16.80;100639.00;;;;10502834;28;20301;-84
2023/07/02 20:51:05;;;;;;;8.38;3.28;;;;;16.80;100646.00;;;;10509861;28;20205;-75
2023/07/02 20:56:07;;;;;;;12.32;3.50;;;;;16.70;100640.00;;;;10492994;28;20253;-84
2023/07/02 21:01:09;;;;;;;14.13;3.58;;;;;16.50;100649.00;;;;10497933;28;20213;-74
2023/07/02 21:06:11;;;;;;;15.18;3.97;;;;;16.40;100655.00;;;;10522372;28;20211;-75
2023/07/02 21:11:12;;;;;;;12.70;3.72;;;;;16.30;100655.00;;;;10498642;28;20193;-85
2023/07/02 21:16:34;;;;;;;16.05;4.55;;;;;16.30;100655.00;;;;10508878;28;20221;-75
2023/07/02 21:21:35;;;;;;;13.40;3.95;;;;;16.20;100659.00;;;;10507009;28;20295;-85
2023/07/02 21:26:36;;;;;;;14.20;3.55;;;;;16.20;100657.00;;;;10528964;28;20208;-84
2023/07/02 21:31:38;;;;;;;15.63;3.80;;;;;16.10;100667.00;;;;10545036;28;20189;-77
2023/07/02 21:36:39;;;;;;;13.43;4.35;;;;;16.00;100663.00;;;;10522233;28;20281;-80
2023/07/02 21:41:41;;;;;;;9.30;3.58;;;;;15.90;100661.00;;;;10506346;28;20221;-74
2023/07/02 21:46:42;;;;;;;16.42;3.65;;;;;15.80;100661.00;;;;10502542;28;20288;-75
2023/07/02 21:51:43;;;;;;;13.45;3.75;;;;;15.80;100669.00;;;;10498313;28;20204;-74
2023/07/02 21:56:44;;;;;;;15.75;4.20;;;;;15.70;100675.00;;;;10530968;28;20203;-79
2023/07/02 22:01:46;;;;;;;12.07;4.28;;;;;15.60;100666.00;;;;10490469;28;20282;-84
2023/07/02 22:06:47;;;;;;;14.95;4.18;;;;;15.50;100674.00;;;;10505340;28;20209;-85
2023/07/02 22:11:48;;;;;;;14.23;4.20;;;;;15.40;100667.00;;;;10509351;28;20199;-75
2023/07/02 22:16:50;;;;;;;12.52;4.05;;;;;15.50;100662.00;;;;10518079;28;20212;-79
2023/07/02 22:21:54;;;;;;;15.82;4.18;;;;;15.50;100661.00;;;;10535079;28;20217;-79
2023/07/02 22:26:55;;;;;;;16.15;4.70;;;;;15.60;100667.00;;;;10518376;28;20297;-76
2023/07/02 22:31:56;;;;;;;15.80;4.65;;;;;15.50;100659.00;;;;10519054;28;20205;-75
2023/07/02 22:36:58;;;;;;;22.52;4.63;;;;;15.50;100664.00;;;;10522062;28;20205;-75
2023/07/02 22:41:59;;;;;;;18.38;4.15;;;;;15.50;100658.00;;;;10544544;28;20216;-76
2023/07/02 22:47:00;;;;;;;14.93;5.00;;;;;15.40;100647.00;;;;10518194;28;20197;-76
2023/07/02 22:52:02;;;;;;;14.40;3.95;;;;;15.40;100645.00;;;;10497933;28;20209;-77
2023/07/02 22:57:04;;;;;;;20.27;4.25;;;;;15.40;100639.00;;;;10535333;28;20296;-80
2023/07/02 23:02:05;;;;;;;19.83;4.43;;;;;15.40;100648.00;;;;10522950;28;20216;-75
2023/07/02 23:07:07;;;;;;;18.85;5.40;;;;;15.30;100642.00;;;;10493052;28;20212;-76
2023/07/02 23:12:09;;;;;;;18.70;4.17;;;;;15.30;100638.00;;;;10501839;28;20219;-79
2023/07/02 23:17:13;;;;;;;18.73;4.30;;;;;15.30;100630.00;;;;10514430;28;20296;-74
2023/07/02 23:22:15;;;;;;;15.30;3.58;;;;;15.20;100627.00;;;;10520058;28;20224;-74
2023/07/02 23:27:18;;;;;;;18.67;4.50;;;;;15.20;100631.00;;;;10535571;28;20265;-85
2023/07/02 23:32:19;;;;;;;16.55;4.32;;;;;15.20;100632.00;;;;10523379;28;20559;-85
2023/07/02 23:37:28;;;;;;;21.35;4.47;;;;;15.30;100618.00;;;;10524512;28;20269;-74
2023/07/02 23:42:29;;;;;;;21.77;4.70;;;;;15.30;100607.00;;;;10510746;28;20232;-75
2023/07/02 23:47:31;;;;;;;15.82;3.50;;;;;15.20;100603.00;;;;10534572;28;20199;-85
2023/07/02 23:52:36;;;;;;;19.88;4.90;;;;;15.10;100609.00;;;;10540119;28;20197;-77
2023/07/02 23:57:38;;;;;;;17.75;4.25;;;;;15.10;100608.00;;;;10522598;28;20192;-75
